Carlisle, MA (01741)

8:02 AM EDT on September 03, 2015 (GMT -0400)
Carlisle Fire Carlisle Center | | Change Station
CLOSE
Current Station
Personal Weather Station
Location: Carlisle, MA
Elevation: 199 ft
Nearby Weather Stations

Elev 199 ft 42.53 °N, 71.35 °W | Updated 1 day ago

Clear
Clear
79 °F
Feels Like 79 °F
N
5
Wind Variable Wind from NNE
Gusts mph

Today
High -- | Low -- °F
--% Chance of Precip.
Yesterday
High -- | Low -- °F
Precip. -- in
6:12 AM 7:16 PM
Waning Gibbous, 71% visible
Pressure 29.88 in
Visibility 6.0 miles
Clouds Clear
Dew Point 67 °F
Humidity 66%
Rainfall in
Snow Depth Not available.
UV 1 out of 12
Pollen 8.60 out of 12
Air Quality Not available.
Flu Activity Not available.
METAR KBED 031156Z 00000KT 6SM BR CLR 19/18 A2985 RMK AO2 SLP119 T01940178 10194 20161 53008
Pressure 29.88 in
Visibility 6.0 miles
Clouds Clear
Dew Point 67 °F
Humidity 66%
Rainfall in
Snow Depth Not available.
UV 1 out of 12
Pollen 8.60 out of 12
Air Quality Not available.
Flu Activity Not available.
METAR KBED 031156Z 00000KT 6SM BR CLR 19/18 A2985 RMK AO2 SLP119 T01940178 10194 20161 53008

10-Day Weather Forecast

×

Almanac

Astronomy

Sep. 03, 2015 Rise Set
Actual Time
Civil Twilight
Nautical Twilight
Astronomical Twilight
Moon
Length of Visible Light
Length of Day
Tomorrow will be .
, % of the Moon is Illuminated

Today's Extremes

State Highs State Lows

Community

WunderPhotos

Upload Photos

1,851,941 photos uploaded!

WunderBlogs® & News

Nearby

Air Quality

  Air Quality AQ Index Pollutant
Not available.

Snow Depth

Station Depth Elevation

Earthquake Activity

City Distance Mag. Time & Date
Minimum magnitude displayed is 2.5.

Coastal Water Temperatures

Place Temperature

Stations

Nearby Weather Stations

Station Location Temp. Windchill Dew Point Humidity Wind Precip. Elev Updated Type